< < Back
Terminal Aerodrome Forecast


Current Version              Previous Versions:   1  2  3  4  5  6  7  8  9  

Terminal Aerodrome Forecast

502
FTUS42 KCHS 311700
TAFCHS
TAF
KCHS 311730Z 3118/0118 VRB05KT P6SM SCT035 SCT250
     FM311930 16010KT P6SM SCT040 SCT250
     FM010200 VRB05KT P6SM SCT015=

Latest METAR

798
SAUS80 KWBC 010800 CCA
MTRCHS
METAR KCHS 010756Z 00000KT 10SM FEW040 26/24 A3007 RMK AO2 SLP183
T02560239 $


USA.gov is the U.S. government's official web portal to all federal, state and local government web resources and services.